createdAt,value
2022-12-04T00:00:14.372Z,98.37
2022-12-04T00:01:14.417Z,98.26
2022-12-04T00:02:15.149Z,98.37
2022-12-04T00:03:14.359Z,98.37
2022-12-04T00:04:14.368Z,98.37
2022-12-04T00:05:14.346Z,98.37
2022-12-04T00:06:14.339Z,98.37
2022-12-04T00:07:14.330Z,98.47
2022-12-04T00:08:14.328Z,98.47
2022-12-04T00:09:15.229Z,98.47
2022-12-04T00:10:14.250Z,98.58
2022-12-04T00:11:15.310Z,98.58
2022-12-04T00:12:14.306Z,98.47
2022-12-04T00:13:14.263Z,98.58
2022-12-04T00:14:15.028Z,98.58
2022-12-04T00:15:25.264Z,98.58
2022-12-04T00:16:15.243Z,98.58
2022-12-04T00:17:14.186Z,98.68
2022-12-04T00:18:14.172Z,98.79
2022-12-04T00:19:14.831Z,98.79
2022-12-04T00:20:14.755Z,98.79
2022-12-04T00:21:14.142Z,98.79
2022-12-04T00:22:15.292Z,98.79
2022-12-04T00:23:14.231Z,98.89
2022-12-04T00:24:14.072Z,98.89
2022-12-04T00:25:14.080Z,99.00
2022-12-04T00:26:14.094Z,99.00
2022-12-04T00:27:14.802Z,99.00
2022-12-04T00:28:14.015Z,99.10
2022-12-04T00:29:14.003Z,99.10
2022-12-04T00:30:14.010Z,99.10
2022-12-04T00:31:14.079Z,99.10
2022-12-04T00:32:13.988Z,99.21
2022-12-04T00:33:13.991Z,99.21
2022-12-04T00:34:14.906Z,99.31
2022-12-04T00:35:14.802Z,99.41
2022-12-04T00:36:14.003Z,99.41
2022-12-04T00:37:13.913Z,99.41
2022-12-04T00:38:13.966Z,99.52
2022-12-04T00:39:13.914Z,99.52
2022-12-04T00:40:13.874Z,99.52
2022-12-04T00:41:13.985Z,99.63
2022-12-04T00:42:13.834Z,99.63
2022-12-04T00:43:13.910Z,99.63
2022-12-04T00:44:13.827Z,99.63
2022-12-04T00:45:14.601Z,99.63
2022-12-04T00:46:13.850Z,99.73
2022-12-04T00:47:13.784Z,99.73
2022-12-04T00:48:14.836Z,99.84
2022-12-04T00:49:13.843Z,99.84
2022-12-04T00:50:13.719Z,99.84
2022-12-04T00:51:13.781Z,99.84
2022-12-04T00:52:14.166Z,99.94
2022-12-04T00:53:13.694Z,99.94
2022-12-04T00:54:13.733Z,99.94
2022-12-04T00:55:13.707Z,99.94
2022-12-04T00:56:14.178Z,99.99
2022-12-04T00:57:14.476Z,99.99
2022-12-04T00:58:14.233Z,99.99
2022-12-04T00:59:13.654Z,99.99
2022-12-04T01:00:13.761Z,99.99
2022-12-04T01:01:13.626Z,99.99
2022-12-04T01:02:13.576Z,99.99
2022-12-04T01:03:13.620Z,99.99
2022-12-04T01:04:13.572Z,99.99
2022-12-04T01:05:14.733Z,99.99
2022-12-04T01:06:13.548Z,99.99
2022-12-04T01:07:13.507Z,99.99
2022-12-04T01:08:13.598Z,99.99
2022-12-04T01:09:13.473Z,99.99
2022-12-04T01:10:13.554Z,99.99
2022-12-04T01:11:13.918Z,99.99
2022-12-04T01:12:17.666Z,99.99
2022-12-04T01:13:14.482Z,99.99
2022-12-04T01:14:14.017Z,99.99
2022-12-04T01:15:13.733Z,99.99
2022-12-04T01:16:13.466Z,99.99
2022-12-04T01:17:13.426Z,99.99
2022-12-04T01:18:13.516Z,99.99
2022-12-04T01:19:13.394Z,99.99
2022-12-04T01:20:14.319Z,99.99
2022-12-04T01:21:13.839Z,99.99
2022-12-04T01:22:13.328Z,99.99
2022-12-04T01:23:13.337Z,99.99
2022-12-04T01:24:13.885Z,99.99
2022-12-04T01:25:14.347Z,99.99
2022-12-04T01:26:13.876Z,99.99
2022-12-04T01:27:13.308Z,99.99
2022-12-04T01:28:13.335Z,99.99
2022-12-04T01:29:13.238Z,99.99
2022-12-04T01:30:13.269Z,99.99
2022-12-04T01:31:13.569Z,99.99
2022-12-04T01:32:13.329Z,99.99
2022-12-04T01:33:13.180Z,99.99
2022-12-04T01:34:13.180Z,99.99
2022-12-04T01:35:13.167Z,99.99
2022-12-04T01:36:13.200Z,99.99
2022-12-04T01:37:13.168Z,99.99
2022-12-04T01:38:14.130Z,99.99
2022-12-04T01:39:13.258Z,99.99
2022-12-04T01:40:13.126Z,99.99
2022-12-04T01:41:13.177Z,99.99
2022-12-04T01:42:14.259Z,99.99
2022-12-04T01:43:14.019Z,99.99
2022-12-04T01:44:13.247Z,99.99
2022-12-04T01:45:13.089Z,99.99
2022-12-04T01:46:13.104Z,99.99
2022-12-04T01:47:13.055Z,99.99
2022-12-04T01:48:13.059Z,99.99
2022-12-04T01:49:14.466Z,99.99
2022-12-04T01:50:12.998Z,99.99
2022-12-04T01:51:13.048Z,99.99
2022-12-04T01:52:13.818Z,99.99
2022-12-04T01:53:14.227Z,99.99
2022-12-04T01:54:12.978Z,99.99
2022-12-04T01:55:12.900Z,99.99
2022-12-04T01:56:12.914Z,99.99
2022-12-04T01:57:12.878Z,99.99
2022-12-04T01:58:13.111Z,99.99
2022-12-04T01:59:12.898Z,99.99
2022-12-04T02:00:12.878Z,99.99
2022-12-04T02:01:13.003Z,99.99
2022-12-04T02:02:12.939Z,99.99
2022-12-04T02:03:12.931Z,99.99
2022-12-04T02:04:13.682Z,99.99
2022-12-04T02:05:12.811Z,99.99
2022-12-04T02:06:12.820Z,99.99
2022-12-04T02:07:12.794Z,99.99
2022-12-04T02:08:12.818Z,99.90
2022-12-04T02:09:12.734Z,99.90
2022-12-04T02:10:12.720Z,99.79
2022-12-04T02:11:13.237Z,99.79
2022-12-04T02:12:12.721Z,99.79
2022-12-04T02:13:12.700Z,99.79
2022-12-04T02:14:12.689Z,99.79
2022-12-04T02:15:12.717Z,99.79
2022-12-04T02:16:12.728Z,99.68
2022-12-04T02:17:12.721Z,99.68
2022-12-04T02:18:12.635Z,99.68
2022-12-04T02:19:12.830Z,99.68
2022-12-04T02:20:12.944Z,99.68
2022-12-04T02:21:13.578Z,99.68
2022-12-04T02:22:12.674Z,99.79
2022-12-04T02:23:12.610Z,99.79
2022-12-04T02:24:12.551Z,99.90
2022-12-04T02:25:12.590Z,99.79
2022-12-04T02:26:12.575Z,99.68
2022-12-04T02:27:12.550Z,99.68
2022-12-04T02:28:12.530Z,99.79
2022-12-04T02:29:13.351Z,99.68
2022-12-04T02:30:12.666Z,99.68
2022-12-04T02:31:12.537Z,99.58
2022-12-04T02:32:12.529Z,99.58
2022-12-04T02:33:12.431Z,99.58
2022-12-04T02:34:12.494Z,99.48
2022-12-04T02:35:12.532Z,99.58
2022-12-04T02:36:12.419Z,99.58
2022-12-04T02:37:12.406Z,99.58
2022-12-04T02:38:12.411Z,99.58
2022-12-04T02:39:12.360Z,99.58
2022-12-04T02:40:12.361Z,99.58
2022-12-04T02:41:12.362Z,99.58
2022-12-04T02:42:13.101Z,99.58
2022-12-04T02:43:12.378Z,99.58
2022-12-04T02:44:12.341Z,99.58
2022-12-04T02:45:13.335Z,99.58
2022-12-04T02:46:13.340Z,99.58
2022-12-04T02:47:12.403Z,99.58
2022-12-04T02:48:12.272Z,99.58
2022-12-04T02:49:12.231Z,99.58
2022-12-04T02:50:12.231Z,99.58
2022-12-04T02:51:12.253Z,99.48
2022-12-04T02:52:12.215Z,99.48
2022-12-04T02:53:12.261Z,99.48
2022-12-04T02:54:12.162Z,99.48
2022-12-04T02:55:12.209Z,99.37
2022-12-04T02:56:13.291Z,99.37
2022-12-04T02:57:12.250Z,99.37
2022-12-04T02:58:13.070Z,99.48
2022-12-04T02:59:12.116Z,99.37
2022-12-04T03:00:12.487Z,99.48
2022-12-04T03:01:12.136Z,99.37
2022-12-04T03:02:12.250Z,99.37
2022-12-04T03:03:13.594Z,99.37
2022-12-04T03:04:12.081Z,99.37
2022-12-04T03:05:12.244Z,99.37
2022-12-04T03:06:12.845Z,99.22
2022-12-04T03:07:13.008Z,99.22
2022-12-04T03:08:12.055Z,99.22
2022-12-04T03:09:12.051Z,99.22
2022-12-04T03:10:12.092Z,99.11
2022-12-04T03:11:11.982Z,99.01
2022-12-04T03:12:11.973Z,98.91
2022-12-04T03:13:12.054Z,99.01
2022-12-04T03:14:11.913Z,99.01
2022-12-04T03:15:11.922Z,99.01
2022-12-04T03:16:11.913Z,99.01
2022-12-04T03:17:11.971Z,99.01
2022-12-04T03:18:11.933Z,98.91
2022-12-04T03:19:11.849Z,98.91
2022-12-04T03:20:11.871Z,98.80
2022-12-04T03:21:11.898Z,98.69
2022-12-04T03:22:11.841Z,98.69
2022-12-04T03:23:12.745Z,98.69
2022-12-04T03:24:11.916Z,98.69
2022-12-04T03:25:11.876Z,98.69
2022-12-04T03:26:11.773Z,98.69
2022-12-04T03:27:11.783Z,98.59
2022-12-04T03:28:11.774Z,98.69
2022-12-04T03:29:11.800Z,98.59
2022-12-04T03:30:11.703Z,98.59
2022-12-04T03:31:11.753Z,98.59
2022-12-04T03:32:11.716Z,98.59
2022-12-04T03:33:12.814Z,98.59
2022-12-04T03:34:11.706Z,98.59
2022-12-04T03:35:11.734Z,98.59
2022-12-04T03:36:12.249Z,98.49
2022-12-04T03:37:11.699Z,98.49
2022-12-04T03:38:11.625Z,98.49
2022-12-04T03:39:11.658Z,98.38
2022-12-04T03:40:11.616Z,98.38
2022-12-04T03:41:11.628Z,98.28
2022-12-04T03:42:11.578Z,98.38
2022-12-04T03:43:11.597Z,98.38
2022-12-04T03:44:12.086Z,98.38
2022-12-04T03:45:11.578Z,98.49
2022-12-04T03:46:12.039Z,98.49
2022-12-04T03:47:11.489Z,98.38
2022-12-04T03:48:11.512Z,98.38
2022-12-04T03:49:11.480Z,98.38
2022-12-04T03:50:12.349Z,98.38
2022-12-04T03:51:11.491Z,98.28
2022-12-04T03:52:12.528Z,98.38
2022-12-04T03:53:11.597Z,98.38
2022-12-04T03:54:11.495Z,98.38
2022-12-04T03:55:11.404Z,98.38
2022-12-04T03:56:11.392Z,98.38
2022-12-04T03:57:11.379Z,98.49
2022-12-04T03:58:12.461Z,98.38
2022-12-04T03:59:11.424Z,98.38
2022-12-04T04:00:11.385Z,98.38
2022-12-04T04:01:11.399Z,98.49
2022-12-04T04:02:11.400Z,98.49
2022-12-04T04:03:11.355Z,98.49
2022-12-04T04:04:12.402Z,98.49
2022-12-04T04:05:11.265Z,98.49
2022-12-04T04:06:11.344Z,98.59
2022-12-04T04:07:11.241Z,98.59
2022-12-04T04:08:11.302Z,98.59
2022-12-04T04:09:11.265Z,98.49
2022-12-04T04:10:11.227Z,98.49
2022-12-04T04:11:11.219Z,98.38
2022-12-04T04:12:11.212Z,98.49
2022-12-04T04:13:11.189Z,98.49
2022-12-04T04:14:11.182Z,98.59
2022-12-04T04:15:11.197Z,98.59
2022-12-04T04:16:11.419Z,98.59
2022-12-04T04:17:11.162Z,98.59
2022-12-04T04:18:11.096Z,98.59
2022-12-04T04:19:11.121Z,98.59
2022-12-04T04:20:11.134Z,98.59
2022-12-04T04:21:11.193Z,98.59
2022-12-04T04:22:11.092Z,98.59
2022-12-04T04:23:11.107Z,98.59
2022-12-04T04:24:12.010Z,98.69
2022-12-04T04:25:11.198Z,98.69
2022-12-04T04:26:11.213Z,98.69
2022-12-04T04:27:11.011Z,98.69
2022-12-04T04:28:11.424Z,98.80
2022-12-04T04:29:12.441Z,98.80
2022-12-04T04:30:10.963Z,98.69
2022-12-04T04:31:11.053Z,98.69
2022-12-04T04:32:10.937Z,98.69
2022-12-04T04:33:10.956Z,98.69
2022-12-04T04:34:10.921Z,98.69
2022-12-04T04:35:10.918Z,98.69
2022-12-04T04:36:10.890Z,98.69
2022-12-04T04:37:10.920Z,98.69
2022-12-04T04:38:10.886Z,98.65
2022-12-04T04:39:10.878Z,98.69
2022-12-04T04:40:10.845Z,98.69
2022-12-04T04:41:10.853Z,98.44
2022-12-04T04:42:10.928Z,98.44
2022-12-04T04:43:10.812Z,98.44
2022-12-04T04:44:10.801Z,98.44
2022-12-04T04:45:10.813Z,98.44
2022-12-04T04:46:12.015Z,98.44
2022-12-04T04:47:11.838Z,98.34
2022-12-04T04:48:10.733Z,98.34
2022-12-04T04:49:10.763Z,98.34
2022-12-04T04:50:10.792Z,98.34
2022-12-04T04:51:10.731Z,98.34
2022-12-04T04:52:10.700Z,98.34
2022-12-04T04:53:10.670Z,98.34
2022-12-04T04:54:10.682Z,98.34
2022-12-04T04:55:10.767Z,98.34
2022-12-04T04:56:10.615Z,98.24
2022-12-04T04:57:10.649Z,98.24
2022-12-04T04:58:10.588Z,98.24
2022-12-04T04:59:10.582Z,98.13
2022-12-04T05:00:10.561Z,98.13
2022-12-04T05:01:10.582Z,98.13
2022-12-04T05:02:11.525Z,98.24
2022-12-04T05:03:10.751Z,98.13
2022-12-04T05:04:10.554Z,98.24
2022-12-04T05:05:10.543Z,98.24
2022-12-04T05:06:10.521Z,98.24
2022-12-04T05:07:10.531Z,98.13
2022-12-04T05:08:10.539Z,98.13
2022-12-04T05:09:10.463Z,98.13
2022-12-04T05:10:10.454Z,98.13
2022-12-04T05:11:10.431Z,98.13
2022-12-04T05:12:10.523Z,98.13
2022-12-04T05:13:10.445Z,98.13
2022-12-04T05:14:10.451Z,98.13
2022-12-04T05:15:10.514Z,98.02
2022-12-04T05:16:10.408Z,98.02
2022-12-04T05:17:12.789Z,97.92
2022-12-04T05:18:10.431Z,98.02
2022-12-04T05:19:12.659Z,98.02
2022-12-04T05:20:10.325Z,98.02
2022-12-04T05:21:10.306Z,98.13
2022-12-04T05:22:10.406Z,98.02
2022-12-04T05:23:10.375Z,98.02
2022-12-04T05:24:10.275Z,98.02
2022-12-04T05:25:10.275Z,97.92
2022-12-04T05:26:10.318Z,98.02
2022-12-04T05:27:10.255Z,98.02
2022-12-04T05:28:10.403Z,98.02
2022-12-04T05:29:10.227Z,98.02
2022-12-04T05:30:10.333Z,98.13
2022-12-04T05:31:10.217Z,98.13
2022-12-04T05:32:10.170Z,98.13
2022-12-04T05:33:10.163Z,98.13
2022-12-04T05:34:10.160Z,98.13
2022-12-04T05:35:11.556Z,98.13
2022-12-04T05:36:10.147Z,98.02
2022-12-04T05:37:10.126Z,98.02
2022-12-04T05:38:10.116Z,98.02
2022-12-04T05:39:10.089Z,97.92
2022-12-04T05:40:10.141Z,97.92
2022-12-04T05:41:10.098Z,97.81
2022-12-04T05:42:10.041Z,97.92
2022-12-04T05:43:10.059Z,97.92
2022-12-04T05:44:11.037Z,97.92
2022-12-04T05:45:10.941Z,97.92
2022-12-04T05:46:10.030Z,98.02
2022-12-04T05:47:10.158Z,98.02
2022-12-04T05:48:09.988Z,98.02
2022-12-04T05:49:09.967Z,97.92
2022-12-04T05:50:09.978Z,97.81
2022-12-04T05:51:09.929Z,97.71
2022-12-04T05:52:09.947Z,97.61
2022-12-04T05:53:10.919Z,97.61
2022-12-04T05:54:10.111Z,97.71
2022-12-04T05:55:09.929Z,97.71
2022-12-04T05:56:09.889Z,97.71
2022-12-04T05:57:10.136Z,97.71
2022-12-04T05:58:09.846Z,97.71
2022-12-04T05:59:09.842Z,97.71
2022-12-04T06:00:09.805Z,97.71
2022-12-04T06:01:09.787Z,97.61
2022-12-04T06:02:09.848Z,97.61
2022-12-04T06:03:09.836Z,97.61
2022-12-04T06:04:09.806Z,97.61
2022-12-04T06:05:10.047Z,97.71
2022-12-04T06:06:13.719Z,97.71
2022-12-04T06:07:10.717Z,97.71
2022-12-04T06:08:09.777Z,97.81
2022-12-04T06:09:09.711Z,97.81
2022-12-04T06:10:09.719Z,97.81
2022-12-04T06:11:09.709Z,97.81
2022-12-04T06:12:10.244Z,97.81
2022-12-04T06:13:09.681Z,97.81
2022-12-04T06:14:09.749Z,97.81
2022-12-04T06:15:09.699Z,97.71
2022-12-04T06:16:09.681Z,97.71
2022-12-04T06:17:09.637Z,97.61
2022-12-04T06:18:09.589Z,97.61
2022-12-04T06:19:09.597Z,97.50
2022-12-04T06:20:11.714Z,97.50
2022-12-04T06:21:09.530Z,97.61
2022-12-04T06:22:09.564Z,97.61
2022-12-04T06:23:09.549Z,97.61
2022-12-04T06:24:09.868Z,97.71
2022-12-04T06:25:09.518Z,97.61
2022-12-04T06:26:09.510Z,97.71
2022-12-04T06:27:27.122Z,97.61
2022-12-04T06:28:10.451Z,97.50
2022-12-04T06:29:09.452Z,97.50
2022-12-04T06:30:09.496Z,97.50
2022-12-04T06:31:09.568Z,97.71
2022-12-04T06:32:09.472Z,97.61
2022-12-04T06:33:09.411Z,97.50
2022-12-04T06:34:09.419Z,97.50
2022-12-04T06:35:09.379Z,97.50
2022-12-04T06:36:09.400Z,97.61
2022-12-04T06:37:09.330Z,97.39
2022-12-04T06:38:09.446Z,97.39
2022-12-04T06:39:11.937Z,97.50
2022-12-04T06:40:10.311Z,97.50
2022-12-04T06:41:09.343Z,97.50
2022-12-04T06:42:09.361Z,97.39
2022-12-04T06:43:09.294Z,97.39
2022-12-04T06:44:09.293Z,97.39
2022-12-04T06:45:09.389Z,97.50
2022-12-04T06:46:09.287Z,97.50
2022-12-04T06:47:09.251Z,97.50
2022-12-04T06:48:09.232Z,97.61
2022-12-04T06:49:09.464Z,97.50
2022-12-04T06:50:09.214Z,97.39
2022-12-04T06:51:09.195Z,97.39
2022-12-04T06:52:09.222Z,97.39
2022-12-04T06:53:09.171Z,97.39
2022-12-04T06:54:09.113Z,97.39
2022-12-04T06:55:09.111Z,97.39
2022-12-04T06:56:10.011Z,97.50
2022-12-04T06:57:10.125Z,97.50
2022-12-04T06:58:09.064Z,97.50
2022-12-04T06:59:09.072Z,97.50
2022-12-04T07:00:09.061Z,97.61
2022-12-04T07:01:09.109Z,97.50
2022-12-04T07:02:10.181Z,97.50
2022-12-04T07:03:09.042Z,97.71
2022-12-04T07:04:09.026Z,97.71
2022-12-04T07:05:09.018Z,97.71
2022-12-04T07:06:08.963Z,97.61
2022-12-04T07:07:09.043Z,97.50
2022-12-04T07:08:09.067Z,97.61
2022-12-04T07:09:09.993Z,97.61
2022-12-04T07:10:08.925Z,97.71
2022-12-04T07:11:08.907Z,97.61
2022-12-04T07:12:08.891Z,97.39
2022-12-04T07:13:08.936Z,97.29
2022-12-04T07:14:08.938Z,97.29
2022-12-04T07:15:08.892Z,97.39
2022-12-04T07:16:08.894Z,97.50
2022-12-04T07:17:08.929Z,97.61
2022-12-04T07:18:08.904Z,97.71
2022-12-04T07:19:08.816Z,97.81
2022-12-04T07:20:08.787Z,97.81
2022-12-04T07:21:08.801Z,97.81
2022-12-04T07:22:09.054Z,97.81
2022-12-04T07:23:08.808Z,97.92
2022-12-04T07:24:08.770Z,97.92
2022-12-04T07:25:08.758Z,97.81
2022-12-04T07:26:08.739Z,97.81
2022-12-04T07:27:08.722Z,97.81
2022-12-04T07:28:08.694Z,97.92
2022-12-04T07:29:08.714Z,97.92
2022-12-04T07:30:12.624Z,97.92
2022-12-04T07:31:09.644Z,97.92
2022-12-04T07:32:08.756Z,98.02
2022-12-04T07:33:08.645Z,98.02
2022-12-04T07:34:08.637Z,98.02
2022-12-04T07:35:09.565Z,98.02
2022-12-04T07:36:08.779Z,98.02
2022-12-04T07:37:08.607Z,98.02
2022-12-04T07:38:08.555Z,98.02
2022-12-04T07:39:08.592Z,97.92
2022-12-04T07:40:08.547Z,98.02
2022-12-04T07:41:08.581Z,98.02
2022-12-04T07:42:08.518Z,98.02
2022-12-04T07:43:08.520Z,98.02
2022-12-04T07:44:08.511Z,98.02
2022-12-04T07:45:08.510Z,98.13
2022-12-04T07:46:08.538Z,98.13
2022-12-04T07:47:09.426Z,98.13
2022-12-04T07:48:08.554Z,98.24
2022-12-04T07:49:08.566Z,98.24
2022-12-04T07:50:08.578Z,98.34
2022-12-04T07:51:08.388Z,98.34
2022-12-04T07:52:08.386Z,98.34
2022-12-04T07:53:08.400Z,98.44
2022-12-04T07:54:08.428Z,98.44
2022-12-04T07:55:08.428Z,98.55
2022-12-04T07:56:08.326Z,98.55
2022-12-04T07:57:09.079Z,98.55
2022-12-04T07:58:08.302Z,98.65
2022-12-04T07:59:08.396Z,98.55
2022-12-04T08:00:08.572Z,98.65
2022-12-04T08:01:08.331Z,98.55
2022-12-04T08:02:08.278Z,98.55
2022-12-04T08:03:08.279Z,98.75
2022-12-04T08:04:08.284Z,98.75
2022-12-04T08:05:08.317Z,98.75
2022-12-04T08:06:08.228Z,98.75
2022-12-04T08:07:08.213Z,98.86
2022-12-04T08:08:08.286Z,98.86
2022-12-04T08:09:10.319Z,98.86
2022-12-04T08:10:08.250Z,98.97
2022-12-04T08:11:08.131Z,98.86
2022-12-04T08:12:08.135Z,98.97
2022-12-04T08:13:08.981Z,98.97
2022-12-04T08:14:08.119Z,98.97
2022-12-04T08:15:08.119Z,98.97
2022-12-04T08:16:08.079Z,98.97
2022-12-04T08:17:08.112Z,98.97
2022-12-04T08:18:08.248Z,99.07
2022-12-04T08:19:08.062Z,99.18
2022-12-04T08:20:08.075Z,99.18
2022-12-04T08:21:08.050Z,99.18
2022-12-04T08:22:08.046Z,99.18
2022-12-04T08:23:07.988Z,99.18
2022-12-04T08:24:08.030Z,99.28
2022-12-04T08:25:07.975Z,99.28
2022-12-04T08:26:08.065Z,99.28
2022-12-04T08:27:08.010Z,99.28
2022-12-04T08:28:07.941Z,99.28
2022-12-04T08:29:07.970Z,99.28
2022-12-04T08:30:08.919Z,99.38
2022-12-04T08:31:08.196Z,99.38
2022-12-04T08:32:07.898Z,99.38
2022-12-04T08:33:07.922Z,99.38
2022-12-04T08:34:07.849Z,99.38
2022-12-04T08:35:07.870Z,99.28
2022-12-04T08:36:08.045Z,99.38
2022-12-04T08:37:07.842Z,99.38
2022-12-04T08:38:08.023Z,99.28
2022-12-04T08:39:07.779Z,99.28
2022-12-04T08:40:07.883Z,99.38
2022-12-04T08:41:07.813Z,99.28
2022-12-04T08:42:07.781Z,99.24
2022-12-04T08:43:07.755Z,99.24
2022-12-04T08:44:07.719Z,99.24
2022-12-04T08:45:07.714Z,99.13
2022-12-04T08:46:07.861Z,99.24
2022-12-04T08:47:07.702Z,99.24
2022-12-04T08:48:07.692Z,99.34
2022-12-04T08:49:07.669Z,99.34
2022-12-04T08:50:07.706Z,99.34
2022-12-04T08:51:07.643Z,99.34
2022-12-04T08:52:07.619Z,99.34
2022-12-04T08:53:07.703Z,99.24
2022-12-04T08:54:07.625Z,99.13
2022-12-04T08:55:07.610Z,99.24
2022-12-04T08:56:07.611Z,99.24
2022-12-04T08:57:07.900Z,99.24
2022-12-04T08:58:07.563Z,99.24
2022-12-04T08:59:07.572Z,99.24
2022-12-04T09:00:07.536Z,99.13
2022-12-04T09:01:07.543Z,99.02
2022-12-04T09:02:07.589Z,99.02
2022-12-04T09:03:07.505Z,98.92
2022-12-04T09:04:07.640Z,98.92
2022-12-04T09:05:07.486Z,99.02
2022-12-04T09:06:07.451Z,99.02
2022-12-04T09:07:07.481Z,99.02
2022-12-04T09:08:07.513Z,98.98
2022-12-04T09:09:08.215Z,98.98
2022-12-04T09:10:07.379Z,99.08
2022-12-04T09:11:07.406Z,99.08
2022-12-04T09:12:07.363Z,99.08
2022-12-04T09:13:07.415Z,99.19
2022-12-04T09:14:07.336Z,99.08
2022-12-04T09:15:07.316Z,98.88
2022-12-04T09:16:07.430Z,98.98
2022-12-04T09:17:07.325Z,98.98
2022-12-04T09:18:07.325Z,98.98
2022-12-04T09:19:07.274Z,98.98
2022-12-04T09:20:07.977Z,99.08
2022-12-04T09:21:07.268Z,98.98
2022-12-04T09:22:08.258Z,99.08
2022-12-04T09:23:07.257Z,99.08
2022-12-04T09:24:07.235Z,99.08
2022-12-04T09:25:07.202Z,99.08
2022-12-04T09:26:07.198Z,99.08
2022-12-04T09:27:12.875Z,98.98
2022-12-04T09:28:08.212Z,99.08
2022-12-04T09:29:08.332Z,99.08
2022-12-04T09:30:08.241Z,99.19
2022-12-04T09:31:07.938Z,99.19
2022-12-04T09:32:07.170Z,99.08
2022-12-04T09:33:07.119Z,99.08
2022-12-04T09:34:07.273Z,99.08
2022-12-04T09:35:07.057Z,99.19
2022-12-04T09:36:07.083Z,99.19
2022-12-04T09:37:07.042Z,99.29
2022-12-04T09:38:07.055Z,99.29
2022-12-04T09:39:07.018Z,99.29
2022-12-04T09:40:07.046Z,99.19
2022-12-04T09:41:06.985Z,99.19
2022-12-04T09:42:08.110Z,99.19
2022-12-04T09:43:07.006Z,99.29
2022-12-04T09:44:07.018Z,99.29
2022-12-04T09:45:06.967Z,99.19
2022-12-04T09:46:06.985Z,99.08
2022-12-04T09:47:07.022Z,99.08
2022-12-04T09:48:06.925Z,99.29
2022-12-04T09:49:06.903Z,99.29
2022-12-04T09:50:07.862Z,99.29
2022-12-04T09:51:07.021Z,99.19
2022-12-04T09:52:06.862Z,99.29
2022-12-04T09:53:06.850Z,99.40
2022-12-04T09:54:06.880Z,99.29
2022-12-04T09:55:06.828Z,99.40
2022-12-04T09:56:06.858Z,99.40
2022-12-04T09:57:06.818Z,99.40
2022-12-04T09:58:06.807Z,99.40
2022-12-04T09:59:06.777Z,99.40
2022-12-04T10:00:06.786Z,99.40
2022-12-04T10:01:06.729Z,99.40
2022-12-04T10:02:06.952Z,99.40
2022-12-04T10:03:07.800Z,99.40
2022-12-04T10:04:06.815Z,99.29
2022-12-04T10:05:06.793Z,99.40
2022-12-04T10:06:07.858Z,99.40
2022-12-04T10:07:07.642Z,99.40
2022-12-04T10:08:07.547Z,99.40
2022-12-04T10:09:06.767Z,99.35
2022-12-04T10:10:06.952Z,99.51
2022-12-04T10:11:06.617Z,99.46
2022-12-04T10:12:06.652Z,99.46
2022-12-04T10:13:07.697Z,99.46
2022-12-04T10:14:06.666Z,99.46
2022-12-04T10:15:06.579Z,99.46
2022-12-04T10:16:06.623Z,99.46
2022-12-04T10:17:06.619Z,99.35
2022-12-04T10:18:06.592Z,99.35
2022-12-04T10:19:06.527Z,99.35
2022-12-04T10:20:07.545Z,99.35
2022-12-04T10:21:06.478Z,99.46
2022-12-04T10:22:06.492Z,99.46
2022-12-04T10:23:12.125Z,99.35
2022-12-04T10:24:07.464Z,99.35
2022-12-04T10:25:06.624Z,99.35
2022-12-04T10:26:06.454Z,99.35
2022-12-04T10:27:06.422Z,99.35
2022-12-04T10:28:06.411Z,99.46
2022-12-04T10:29:06.409Z,99.46
2022-12-04T10:30:06.368Z,99.46
2022-12-04T10:31:06.459Z,99.56
2022-12-04T10:32:06.420Z,99.66
2022-12-04T10:33:06.399Z,99.66
2022-12-04T10:34:06.350Z,99.56
2022-12-04T10:35:06.299Z,99.66
2022-12-04T10:36:06.546Z,99.77
2022-12-04T10:37:07.438Z,99.66
2022-12-04T10:38:06.363Z,99.66
2022-12-04T10:39:07.698Z,99.56
2022-12-04T10:40:06.253Z,99.66
2022-12-04T10:41:10.287Z,99.77
2022-12-04T10:42:07.340Z,99.77
2022-12-04T10:43:06.243Z,99.77
2022-12-04T10:44:06.318Z,99.77
2022-12-04T10:45:06.273Z,99.88
2022-12-04T10:46:06.422Z,99.88
2022-12-04T10:47:07.217Z,99.77
2022-12-04T10:48:06.151Z,99.77
2022-12-04T10:49:06.119Z,99.88
2022-12-04T10:50:06.171Z,99.77
2022-12-04T10:51:06.204Z,99.77
2022-12-04T10:52:06.122Z,99.88
2022-12-04T10:53:09.530Z,99.77
2022-12-04T10:54:07.130Z,99.77
2022-12-04T10:55:06.174Z,99.77
2022-12-04T10:56:06.224Z,99.77
2022-12-04T10:57:06.027Z,99.88
2022-12-04T10:58:06.958Z,99.77
2022-12-04T10:59:06.862Z,99.77
2022-12-04T11:00:06.764Z,99.77
2022-12-04T11:01:06.025Z,99.77
2022-12-04T11:02:07.177Z,99.77
2022-12-04T11:03:07.072Z,99.88
2022-12-04T11:04:05.952Z,99.77
2022-12-04T11:05:05.991Z,99.77
2022-12-04T11:06:05.919Z,99.83
2022-12-04T11:07:05.924Z,99.83
2022-12-04T11:08:05.913Z,99.83
2022-12-04T11:09:05.933Z,99.73
2022-12-04T11:10:05.890Z,99.73
2022-12-04T11:11:06.732Z,99.83
2022-12-04T11:12:05.961Z,99.73
2022-12-04T11:13:05.830Z,99.83
2022-12-04T11:14:05.853Z,99.73
2022-12-04T11:15:05.783Z,99.83
2022-12-04T11:16:05.867Z,99.73
2022-12-04T11:17:05.761Z,99.73
2022-12-04T11:18:05.784Z,99.73
2022-12-04T11:19:05.744Z,99.83
2022-12-04T11:20:05.779Z,99.83
2022-12-04T11:21:05.727Z,99.93
2022-12-04T11:22:05.778Z,99.83
2022-12-04T11:23:05.726Z,99.83
2022-12-04T11:24:05.679Z,99.93
2022-12-04T11:25:05.744Z,99.93
2022-12-04T11:26:06.556Z,99.93
2022-12-04T11:27:05.673Z,99.93
2022-12-04T11:28:05.639Z,99.93
2022-12-04T11:29:05.850Z,99.99
2022-12-04T11:30:05.638Z,99.99
2022-12-04T11:31:05.665Z,99.99
2022-12-04T11:32:07.986Z,99.99
2022-12-04T11:33:06.674Z,99.99
2022-12-04T11:34:05.564Z,99.99
2022-12-04T11:35:05.544Z,99.99
2022-12-04T11:36:06.989Z,99.99
2022-12-04T11:37:06.016Z,99.99
2022-12-04T11:38:05.511Z,99.99
2022-12-04T11:39:05.517Z,99.99
2022-12-04T11:40:05.546Z,99.99
2022-12-04T11:41:05.486Z,99.99
2022-12-04T11:42:05.505Z,99.99
2022-12-04T11:43:05.456Z,99.99
2022-12-04T11:44:05.426Z,99.99
2022-12-04T11:45:05.455Z,99.99
2022-12-04T11:46:05.424Z,99.99
2022-12-04T11:47:05.443Z,99.99
2022-12-04T11:48:05.399Z,99.99
2022-12-04T11:49:06.163Z,99.99
2022-12-04T11:50:05.367Z,99.99
2022-12-04T11:51:05.375Z,99.99
2022-12-04T11:52:05.329Z,99.99
2022-12-04T11:53:05.316Z,99.99
2022-12-04T11:54:05.346Z,99.99
2022-12-04T11:55:05.356Z,99.99
2022-12-04T11:56:05.298Z,99.99
2022-12-04T11:57:05.285Z,99.99
2022-12-04T11:58:05.254Z,99.99
2022-12-04T11:59:05.367Z,99.99
2022-12-04T12:00:05.211Z,99.99
2022-12-04T12:01:05.232Z,99.99
2022-12-04T12:02:05.539Z,99.99
2022-12-04T12:03:05.384Z,99.99
2022-12-04T12:04:05.209Z,99.99
2022-12-04T12:05:05.308Z,99.99
2022-12-04T12:06:05.138Z,99.99
2022-12-04T12:07:05.277Z,99.99
2022-12-04T12:08:05.151Z,99.99
2022-12-04T12:09:05.130Z,99.99
2022-12-04T12:10:05.117Z,99.99
2022-12-04T12:11:05.159Z,99.99
2022-12-04T12:12:05.099Z,99.99
2022-12-04T12:13:05.899Z,99.99
2022-12-04T12:14:05.047Z,99.99
2022-12-04T12:15:05.075Z,99.99
2022-12-04T12:16:05.089Z,99.99
2022-12-04T12:17:05.120Z,99.99
2022-12-04T12:18:05.005Z,99.99
2022-12-04T12:19:04.978Z,99.99
2022-12-04T12:20:05.757Z,99.99
2022-12-04T12:21:04.942Z,99.99
2022-12-04T12:22:05.568Z,99.99
2022-12-04T12:23:05.972Z,99.99
2022-12-04T12:24:04.960Z,99.99
2022-12-04T12:25:04.922Z,99.99
2022-12-04T12:26:04.909Z,99.99
2022-12-04T12:27:05.015Z,99.99
2022-12-04T12:28:06.001Z,99.99
2022-12-04T12:29:04.878Z,99.99
2022-12-04T12:30:04.843Z,99.99
2022-12-04T12:31:06.166Z,99.99
2022-12-04T12:32:05.397Z,99.99
2022-12-04T12:33:04.888Z,99.99
2022-12-04T12:34:04.788Z,99.99
2022-12-04T12:35:04.781Z,99.99
2022-12-04T12:36:04.781Z,99.99
2022-12-04T12:37:04.778Z,99.99
2022-12-04T12:38:04.788Z,99.99
2022-12-04T12:39:04.771Z,99.99
2022-12-04T12:40:04.718Z,99.99
2022-12-04T12:41:04.786Z,99.99
2022-12-04T12:42:04.700Z,99.99
2022-12-04T12:43:05.619Z,99.99
2022-12-04T12:44:04.672Z,99.99
2022-12-04T12:45:04.714Z,99.99
2022-12-04T12:46:04.709Z,99.99
2022-12-04T12:47:04.631Z,99.99
2022-12-04T12:48:04.734Z,99.99
2022-12-04T12:49:04.652Z,99.99
2022-12-04T12:50:04.611Z,99.99
2022-12-04T12:51:28.564Z,99.99
2022-12-04T12:52:05.564Z,99.99